createdAt,value
2023-02-23T00:00:15.362Z,996.71
2023-02-23T00:00:34.319Z,996.71
2023-02-23T00:01:00.688Z,996.71
2023-02-23T00:01:32.607Z,996.71
2023-02-23T00:02:05.408Z,996.51
2023-02-23T00:02:34.035Z,996.41
2023-02-23T00:02:52.712Z,996.41
2023-02-23T00:03:24.606Z,996.41
2023-02-23T00:03:41.811Z,996.41
2023-02-23T00:04:12.640Z,996.41
2023-02-23T00:04:34.310Z,996.61
2023-02-23T00:05:02.524Z,996.61
2023-02-23T00:05:32.585Z,996.61
2023-02-23T00:06:04.665Z,996.71
2023-02-23T00:06:33.813Z,996.82
2023-02-23T00:06:52.985Z,996.82
2023-02-23T00:07:24.580Z,996.82
2023-02-23T00:07:41.759Z,996.61
2023-02-23T00:08:12.594Z,996.61
2023-02-23T00:08:35.357Z,996.71
2023-02-23T00:09:00.764Z,996.71
2023-02-23T00:09:32.634Z,996.71
2023-02-23T00:10:05.089Z,996.51
2023-02-23T00:10:36.730Z,996.51
2023-02-23T00:11:08.636Z,996.61
2023-02-23T00:11:35.574Z,996.51
2023-02-23T00:11:56.654Z,996.51
2023-02-23T00:12:29.253Z,996.51
2023-02-23T00:13:00.660Z,996.71
2023-02-23T00:13:32.595Z,996.71
2023-02-23T00:14:04.661Z,996.51
2023-02-23T00:14:37.397Z,996.51
2023-02-23T00:15:09.164Z,996.71
2023-02-23T00:15:34.850Z,996.61
2023-02-23T00:15:56.940Z,996.61
2023-02-23T00:16:29.285Z,996.61
2023-02-23T00:17:00.707Z,996.71
2023-02-23T00:17:32.615Z,996.71
2023-02-23T00:18:04.588Z,996.51
2023-02-23T00:18:36.721Z,996.51
2023-02-23T00:19:08.711Z,996.71
2023-02-23T00:19:34.887Z,996.61
2023-02-23T00:19:56.726Z,996.61
2023-02-23T00:20:29.481Z,996.61
2023-02-23T00:21:01.404Z,996.41
2023-02-23T00:21:32.602Z,996.41
2023-02-23T00:22:04.632Z,996.61
2023-02-23T00:22:36.620Z,996.61
2023-02-23T00:23:08.619Z,996.71
2023-02-23T00:23:35.410Z,996.71
2023-02-23T00:23:56.697Z,996.71
2023-02-23T00:24:29.191Z,996.71
2023-02-23T00:25:03.342Z,996.61
2023-02-23T00:25:32.614Z,996.61
2023-02-23T00:26:04.634Z,996.61
2023-02-23T00:26:36.644Z,996.61
2023-02-23T00:27:08.671Z,996.51
2023-02-23T00:27:35.104Z,996.71
2023-02-23T00:27:56.633Z,996.71
2023-02-23T00:28:29.195Z,996.71
2023-02-23T00:29:00.634Z,996.51
2023-02-23T00:29:32.597Z,996.51
2023-02-23T00:30:06.501Z,996.41
2023-02-23T00:30:37.518Z,996.41
2023-02-23T00:31:08.618Z,996.61
2023-02-23T00:31:34.919Z,996.51
2023-02-23T00:31:56.768Z,996.51
2023-02-23T00:32:29.418Z,996.51
2023-02-23T00:33:00.791Z,996.61
2023-02-23T00:33:32.626Z,996.61
2023-02-23T00:34:04.648Z,996.51
2023-02-23T00:34:36.717Z,996.51
2023-02-23T00:35:08.896Z,996.61
2023-02-23T00:35:34.910Z,996.61
2023-02-23T00:35:56.872Z,996.61
2023-02-23T00:36:29.189Z,996.61
2023-02-23T00:37:01.556Z,996.61
2023-02-23T00:37:32.623Z,996.61
2023-02-23T00:38:04.574Z,996.61
2023-02-23T00:38:36.645Z,996.61
2023-02-23T00:39:08.578Z,996.71
2023-02-23T00:39:34.794Z,996.61
2023-02-23T00:39:56.686Z,996.61
2023-02-23T00:40:29.593Z,996.61
2023-02-23T00:41:00.727Z,996.71
2023-02-23T00:41:32.552Z,996.71
2023-02-23T00:42:04.624Z,996.61
2023-02-23T00:42:36.690Z,996.61
2023-02-23T00:43:08.608Z,996.61
2023-02-23T00:43:34.783Z,996.51
2023-02-23T00:43:56.624Z,996.51
2023-02-23T00:44:29.203Z,996.51
2023-02-23T00:45:03.052Z,996.71
2023-02-23T00:45:32.598Z,996.71
2023-02-23T00:46:04.920Z,996.41
2023-02-23T00:46:37.505Z,996.41
2023-02-23T00:47:08.582Z,996.51
2023-02-23T00:47:35.414Z,996.61
2023-02-23T00:47:56.617Z,996.61
2023-02-23T00:48:29.245Z,996.61
2023-02-23T00:49:00.677Z,996.61
2023-02-23T00:49:32.635Z,996.61
2023-02-23T00:50:05.206Z,996.51
2023-02-23T00:50:36.625Z,996.51
2023-02-23T00:51:08.597Z,996.71
2023-02-23T00:51:34.781Z,996.41
2023-02-23T00:51:56.639Z,996.41
2023-02-23T00:52:29.194Z,996.41
2023-02-23T00:53:01.523Z,996.71
2023-02-23T00:53:32.583Z,996.71
2023-02-23T00:54:04.576Z,996.61
2023-02-23T00:54:36.573Z,996.61
2023-02-23T00:55:08.870Z,996.61
2023-02-23T00:55:34.817Z,996.41
2023-02-23T00:55:56.897Z,996.41
2023-02-23T00:56:29.193Z,996.41
2023-02-23T00:57:00.870Z,996.51
2023-02-23T00:57:32.619Z,996.51
2023-02-23T00:58:04.700Z,996.51
2023-02-23T00:58:36.946Z,996.51
2023-02-23T00:59:08.627Z,996.51
2023-02-23T00:59:34.809Z,996.41
2023-02-23T00:59:56.653Z,996.41
2023-02-23T01:00:30.707Z,996.41
2023-02-23T01:01:00.701Z,996.61
2023-02-23T01:01:32.628Z,996.61
2023-02-23T01:02:04.669Z,996.24
2023-02-23T01:02:36.750Z,996.24
2023-02-23T01:03:08.587Z,996.61
2023-02-23T01:03:35.578Z,996.41
2023-02-23T01:03:56.646Z,996.41
2023-02-23T01:04:29.241Z,996.41
2023-02-23T01:05:02.599Z,996.51
2023-02-23T01:05:32.604Z,996.51
2023-02-23T01:06:04.685Z,996.61
2023-02-23T01:06:37.567Z,996.61
2023-02-23T01:07:08.598Z,996.71
2023-02-23T01:07:34.851Z,996.61
2023-02-23T01:07:56.609Z,996.61
2023-02-23T01:08:29.217Z,996.61
2023-02-23T01:09:00.915Z,996.61
2023-02-23T01:09:32.564Z,996.61
2023-02-23T01:10:04.923Z,996.82
2023-02-23T01:10:37.088Z,996.82
2023-02-23T01:11:08.621Z,996.71
2023-02-23T01:11:35.193Z,996.51
2023-02-23T01:11:56.728Z,996.51
2023-02-23T01:12:29.205Z,996.51
2023-02-23T01:13:01.537Z,996.51
2023-02-23T01:13:32.550Z,996.51
2023-02-23T01:14:04.662Z,996.61
2023-02-23T01:14:36.641Z,996.61
2023-02-23T01:15:09.223Z,996.71
2023-02-23T01:15:34.881Z,996.71
2023-02-23T01:15:56.951Z,996.71
2023-02-23T01:16:29.208Z,996.71
2023-02-23T01:17:00.639Z,996.71
2023-02-23T01:17:32.564Z,996.71
2023-02-23T01:18:04.626Z,996.51
2023-02-23T01:18:36.585Z,996.51
2023-02-23T01:19:08.608Z,996.71
2023-02-23T01:19:34.815Z,996.61
2023-02-23T01:19:56.645Z,996.61
2023-02-23T01:20:29.574Z,996.61
2023-02-23T01:21:00.692Z,996.71
2023-02-23T01:21:32.588Z,996.71
2023-02-23T01:22:04.610Z,996.92
2023-02-23T01:22:37.460Z,996.92
2023-02-23T01:23:08.616Z,996.51
2023-02-23T01:23:34.837Z,996.61
2023-02-23T01:23:56.633Z,996.61
2023-02-23T01:24:29.124Z,996.61
2023-02-23T01:25:02.405Z,996.61
2023-02-23T01:25:32.540Z,996.61
2023-02-23T01:26:04.613Z,996.41
2023-02-23T01:26:36.578Z,996.41
2023-02-23T01:27:08.602Z,996.71
2023-02-23T01:27:34.781Z,996.51
2023-02-23T01:27:56.694Z,996.51
2023-02-23T01:28:29.135Z,996.51
2023-02-23T01:29:02.164Z,996.61
2023-02-23T01:29:32.557Z,996.61
2023-02-23T01:30:06.788Z,996.71
2023-02-23T01:30:36.630Z,996.71
2023-02-23T01:31:08.796Z,996.61
2023-02-23T01:31:34.907Z,996.51
2023-02-23T01:31:56.829Z,996.51
2023-02-23T01:32:29.504Z,996.51
2023-02-23T01:33:00.783Z,996.61
2023-02-23T01:33:32.591Z,996.61
2023-02-23T01:34:04.632Z,996.61
2023-02-23T01:34:36.579Z,996.61
2023-02-23T01:35:08.845Z,996.71
2023-02-23T01:35:34.808Z,996.51
2023-02-23T01:35:56.872Z,996.51
2023-02-23T01:36:29.207Z,996.51
2023-02-23T01:37:00.644Z,996.51
2023-02-23T01:37:32.588Z,996.51
2023-02-23T01:38:04.579Z,996.41
2023-02-23T01:38:37.509Z,996.41
2023-02-23T01:39:08.592Z,996.61
2023-02-23T01:39:34.815Z,996.61
2023-02-23T01:39:56.635Z,996.61
2023-02-23T01:40:30.441Z,996.61
2023-02-23T01:41:00.996Z,996.61
2023-02-23T01:41:32.611Z,996.61
2023-02-23T01:42:04.555Z,996.82
2023-02-23T01:42:36.695Z,996.82
2023-02-23T01:43:09.145Z,996.51
2023-02-23T01:43:35.014Z,996.51
2023-02-23T01:43:57.807Z,996.51
2023-02-23T01:44:29.613Z,996.51
2023-02-23T01:45:02.612Z,996.61
2023-02-23T01:45:32.698Z,996.61
2023-02-23T01:46:05.285Z,996.71
2023-02-23T01:46:36.715Z,996.71
2023-02-23T01:47:08.851Z,996.61
2023-02-23T01:47:34.981Z,996.82
2023-02-23T01:47:56.891Z,996.82
2023-02-23T01:48:30.114Z,996.82
2023-02-23T01:49:00.893Z,996.41
2023-02-23T01:49:32.857Z,996.41
2023-02-23T01:50:04.970Z,996.51
2023-02-23T01:50:37.374Z,996.51
2023-02-23T01:51:08.756Z,996.71
2023-02-23T01:51:34.779Z,996.71
2023-02-23T01:51:56.597Z,996.71
2023-02-23T01:52:29.261Z,996.71
2023-02-23T01:53:00.739Z,996.61
2023-02-23T01:53:32.610Z,996.61
2023-02-23T01:54:04.613Z,996.61
2023-02-23T01:54:36.645Z,996.61
2023-02-23T01:55:09.446Z,996.51
2023-02-23T01:55:34.803Z,996.71
2023-02-23T01:55:57.043Z,996.71
2023-02-23T01:56:29.316Z,996.71
2023-02-23T01:57:00.653Z,996.51
2023-02-23T01:57:32.600Z,996.51
2023-02-23T01:58:04.609Z,996.41
2023-02-23T01:58:36.663Z,996.41
2023-02-23T01:59:08.597Z,996.71
2023-02-23T01:59:34.807Z,996.61
2023-02-23T01:59:57.405Z,996.61
2023-02-23T02:00:30.561Z,996.61
2023-02-23T02:01:01.008Z,996.41
2023-02-23T02:01:32.742Z,996.41
2023-02-23T02:02:04.654Z,996.51
2023-02-23T02:02:36.630Z,996.51
2023-02-23T02:03:08.628Z,996.61
2023-02-23T02:03:35.951Z,996.51
2023-02-23T02:03:56.698Z,996.51
2023-02-23T02:04:29.288Z,996.51
2023-02-23T02:05:02.505Z,996.51
2023-02-23T02:05:32.628Z,996.51
2023-02-23T02:06:04.615Z,996.41
2023-02-23T02:06:37.753Z,996.41
2023-02-23T02:07:08.594Z,996.71
2023-02-23T02:07:34.833Z,996.51
2023-02-23T02:07:56.599Z,996.51
2023-02-23T02:08:29.263Z,996.51
2023-02-23T02:09:00.759Z,996.51
2023-02-23T02:09:32.633Z,996.51
2023-02-23T02:10:05.036Z,996.71
2023-02-23T02:10:36.640Z,996.71
2023-02-23T02:11:08.562Z,996.71
2023-02-23T02:11:34.812Z,996.51
2023-02-23T02:11:56.587Z,996.51
2023-02-23T02:12:29.166Z,996.51
2023-02-23T02:13:01.451Z,996.61
2023-02-23T02:13:32.624Z,996.61
2023-02-23T02:14:04.743Z,996.31
2023-02-23T02:14:36.601Z,996.31
2023-02-23T02:15:09.175Z,996.51
2023-02-23T02:15:34.845Z,996.71
2023-02-23T02:15:56.983Z,996.71
2023-02-23T02:16:29.328Z,996.71
2023-02-23T02:17:00.733Z,996.51
2023-02-23T02:17:32.720Z,996.51
2023-02-23T02:18:04.641Z,996.61
2023-02-23T02:18:36.587Z,996.61
2023-02-23T02:19:08.888Z,996.51
2023-02-23T02:19:34.794Z,996.51
2023-02-23T02:19:56.605Z,996.51
2023-02-23T02:20:29.595Z,996.51
2023-02-23T02:21:00.658Z,996.71
2023-02-23T02:21:32.582Z,996.71
2023-02-23T02:22:04.801Z,996.51
2023-02-23T02:22:37.598Z,996.51
2023-02-23T02:23:08.629Z,996.51
2023-02-23T02:23:34.774Z,996.51
2023-02-23T02:23:56.722Z,996.51
2023-02-23T02:24:31.153Z,996.51
2023-02-23T02:25:03.044Z,996.41
2023-02-23T02:25:32.772Z,996.41
2023-02-23T02:26:04.576Z,996.31
2023-02-23T02:26:36.595Z,996.31
2023-02-23T02:27:08.620Z,996.51
2023-02-23T02:27:34.804Z,996.41
2023-02-23T02:27:56.602Z,996.41
2023-02-23T02:28:29.144Z,996.41
2023-02-23T02:29:02.321Z,996.51
2023-02-23T02:29:32.639Z,996.51
2023-02-23T02:30:06.696Z,996.41
2023-02-23T02:30:36.695Z,996.41
2023-02-23T02:31:08.629Z,996.31
2023-02-23T02:31:34.851Z,996.31
2023-02-23T02:31:56.766Z,996.31
2023-02-23T02:32:29.274Z,996.31
2023-02-23T02:33:01.784Z,996.31
2023-02-23T02:33:32.617Z,996.31
2023-02-23T02:34:04.626Z,996.41
2023-02-23T02:34:36.588Z,996.41
2023-02-23T02:35:08.875Z,996.51
2023-02-23T02:35:34.763Z,996.31
2023-02-23T02:35:56.920Z,996.31
2023-02-23T02:36:29.119Z,996.31
2023-02-23T02:37:00.607Z,996.31
2023-02-23T02:37:32.567Z,996.31
2023-02-23T02:38:04.565Z,996.41
2023-02-23T02:38:37.336Z,996.41
2023-02-23T02:39:08.963Z,996.24
2023-02-23T02:39:35.527Z,996.41
2023-02-23T02:39:56.549Z,996.41
2023-02-23T02:40:29.414Z,996.41
2023-02-23T02:41:00.616Z,996.61
2023-02-23T02:41:32.576Z,996.61
2023-02-23T02:42:04.553Z,996.41
2023-02-23T02:42:36.916Z,996.41
2023-02-23T02:43:08.541Z,996.61
2023-02-23T02:43:34.747Z,996.31
2023-02-23T02:43:56.536Z,996.31
2023-02-23T02:44:29.205Z,996.31
2023-02-23T02:45:03.458Z,996.41
2023-02-23T02:45:32.677Z,996.41
2023-02-23T02:46:04.916Z,996.31
2023-02-23T02:46:36.666Z,996.31
2023-02-23T02:47:08.594Z,996.31
2023-02-23T02:47:34.720Z,996.31
2023-02-23T02:47:56.623Z,996.31
2023-02-23T02:48:29.037Z,996.31
2023-02-23T02:49:00.731Z,996.61
2023-02-23T02:49:32.554Z,996.61
2023-02-23T02:50:05.879Z,996.14
2023-02-23T02:50:36.564Z,996.14
2023-02-23T02:51:08.579Z,996.41
2023-02-23T02:51:34.778Z,996.04
2023-02-23T02:51:56.676Z,996.04
2023-02-23T02:52:28.586Z,996.04
2023-02-23T02:53:00.927Z,996.14
2023-02-23T02:53:32.516Z,996.14
2023-02-23T02:54:04.555Z,996.14
2023-02-23T02:54:37.486Z,996.14
2023-02-23T02:55:08.890Z,996.31
2023-02-23T02:55:34.751Z,996.31
2023-02-23T02:55:56.804Z,996.31
2023-02-23T02:56:29.072Z,996.31
2023-02-23T02:57:00.633Z,996.41
2023-02-23T02:57:32.544Z,996.41
2023-02-23T02:58:04.557Z,996.24
2023-02-23T02:58:36.819Z,996.24
2023-02-23T02:59:08.607Z,996.31
2023-02-23T02:59:34.728Z,996.31
2023-02-23T02:59:56.573Z,996.31
2023-02-23T03:00:29.740Z,996.31
2023-02-23T03:01:02.307Z,996.31
2023-02-23T03:01:32.634Z,996.31
2023-02-23T03:02:04.539Z,996.24
2023-02-23T03:02:36.527Z,996.24
2023-02-23T03:03:08.531Z,996.31
2023-02-23T03:03:34.753Z,996.51
2023-02-23T03:03:56.584Z,996.51
2023-02-23T03:04:28.621Z,996.51
2023-02-23T03:05:02.749Z,996.31
2023-02-23T03:05:32.576Z,996.31
2023-02-23T03:06:04.586Z,996.24
2023-02-23T03:06:36.522Z,996.24
2023-02-23T03:07:08.652Z,996.31
2023-02-23T03:07:34.721Z,996.61
2023-02-23T03:07:56.567Z,996.61
2023-02-23T03:08:28.849Z,996.61
2023-02-23T03:09:00.635Z,996.31
2023-02-23T03:09:32.545Z,996.31
2023-02-23T03:10:04.876Z,996.31
2023-02-23T03:10:37.577Z,996.31
2023-02-23T03:11:08.632Z,996.31
2023-02-23T03:11:34.761Z,996.31
2023-02-23T03:11:56.571Z,996.31
2023-02-23T03:12:28.842Z,996.31
2023-02-23T03:13:00.664Z,996.24
2023-02-23T03:13:32.559Z,996.24
2023-02-23T03:14:04.709Z,996.24
2023-02-23T03:14:36.561Z,996.24
2023-02-23T03:15:09.165Z,996.31
2023-02-23T03:15:34.790Z,996.24
2023-02-23T03:15:57.006Z,996.24
2023-02-23T03:16:28.589Z,996.24
2023-02-23T03:17:01.347Z,996.24
2023-02-23T03:17:32.558Z,996.24
2023-02-23T03:18:04.664Z,996.24
2023-02-23T03:18:36.541Z,996.24
2023-02-23T03:19:08.558Z,996.24
2023-02-23T03:19:34.771Z,996.31
2023-02-23T03:19:56.593Z,996.31
2023-02-23T03:20:30.365Z,996.31
2023-02-23T03:21:00.687Z,996.31
2023-02-23T03:21:32.611Z,996.31
2023-02-23T03:22:04.626Z,996.31
2023-02-23T03:22:36.621Z,996.31
2023-02-23T03:23:08.691Z,996.41
2023-02-23T03:23:34.794Z,996.31
2023-02-23T03:23:56.585Z,996.31
2023-02-23T03:24:28.613Z,996.31
2023-02-23T03:25:02.438Z,996.24
2023-02-23T03:25:32.616Z,996.24
2023-02-23T03:26:04.593Z,996.24
2023-02-23T03:26:37.527Z,996.24
2023-02-23T03:27:08.608Z,996.31
2023-02-23T03:27:34.932Z,996.31
2023-02-23T03:27:56.616Z,996.31
2023-02-23T03:28:29.124Z,996.31
2023-02-23T03:29:00.702Z,996.31
2023-02-23T03:29:32.633Z,996.31
2023-02-23T03:30:06.471Z,996.24
2023-02-23T03:30:36.663Z,996.24
2023-02-23T03:31:08.657Z,996.24
2023-02-23T03:31:35.389Z,996.51
2023-02-23T03:31:56.674Z,996.51
2023-02-23T03:32:29.009Z,996.51
2023-02-23T03:33:03.203Z,996.24
2023-02-23T03:33:32.685Z,996.24
2023-02-23T03:34:04.562Z,996.41
2023-02-23T03:34:36.864Z,996.41
2023-02-23T03:35:08.846Z,996.31
2023-02-23T03:35:34.980Z,996.24
2023-02-23T03:35:56.938Z,996.24
2023-02-23T03:36:28.603Z,996.24
2023-02-23T03:37:00.667Z,996.24
2023-02-23T03:37:32.747Z,996.24
2023-02-23T03:38:06.664Z,996.41
2023-02-23T03:38:36.599Z,996.41
2023-02-23T03:39:08.595Z,996.41
2023-02-23T03:39:34.735Z,996.41
2023-02-23T03:39:56.562Z,996.41
2023-02-23T03:40:29.351Z,996.41
2023-02-23T03:41:00.621Z,996.31
2023-02-23T03:41:32.562Z,996.31
2023-02-23T03:42:04.600Z,996.31
2023-02-23T03:42:37.443Z,996.31
2023-02-23T03:43:08.537Z,996.51
2023-02-23T03:43:34.739Z,996.41
2023-02-23T03:43:56.589Z,996.41
2023-02-23T03:44:28.636Z,996.41
2023-02-23T03:45:03.239Z,996.31
2023-02-23T03:45:32.676Z,996.31
2023-02-23T03:46:05.010Z,996.24
2023-02-23T03:46:36.624Z,996.24
2023-02-23T03:47:08.537Z,996.31
2023-02-23T03:47:35.036Z,996.31
2023-02-23T03:47:56.610Z,996.31
2023-02-23T03:48:28.672Z,996.31
2023-02-23T03:49:01.263Z,996.31
2023-02-23T03:49:32.676Z,996.31
2023-02-23T03:50:04.851Z,996.31
2023-02-23T03:50:36.554Z,996.31
2023-02-23T03:51:08.549Z,996.31
2023-02-23T03:51:34.792Z,996.31
2023-02-23T03:51:56.568Z,996.31
2023-02-23T03:52:28.620Z,996.31
2023-02-23T03:53:00.676Z,996.24
2023-02-23T03:53:32.550Z,996.24
2023-02-23T03:54:04.601Z,996.41
2023-02-23T03:54:36.644Z,996.41
2023-02-23T03:55:08.829Z,996.31
2023-02-23T03:55:34.754Z,996.41
2023-02-23T03:55:56.772Z,996.41
2023-02-23T03:56:28.629Z,996.41
2023-02-23T03:57:00.644Z,996.41
2023-02-23T03:57:32.652Z,996.41
2023-02-23T03:58:04.546Z,996.24
2023-02-23T03:58:37.547Z,996.24
2023-02-23T03:59:08.546Z,996.31
2023-02-23T03:59:34.811Z,996.31
2023-02-23T03:59:56.698Z,996.31
2023-02-23T04:00:29.802Z,996.31
2023-02-23T04:01:00.697Z,996.31
2023-02-23T04:01:32.658Z,996.31
2023-02-23T04:02:04.786Z,996.31
2023-02-23T04:02:36.643Z,996.31
2023-02-23T04:03:08.663Z,996.31
2023-02-23T04:03:34.872Z,996.41
2023-02-23T04:03:56.653Z,996.41
2023-02-23T04:04:28.626Z,996.41
2023-02-23T04:05:03.534Z,996.31
2023-02-23T04:05:33.342Z,996.31
2023-02-23T04:06:05.308Z,996.31
2023-02-23T04:06:36.630Z,996.31
2023-02-23T04:07:08.616Z,996.24
2023-02-23T04:07:34.828Z,996.41
2023-02-23T04:07:56.625Z,996.41
2023-02-23T04:08:28.661Z,996.41
2023-02-23T04:09:00.749Z,996.31
2023-02-23T04:09:32.659Z,996.31
2023-02-23T04:10:04.946Z,996.41
2023-02-23T04:10:36.638Z,996.41
2023-02-23T04:11:08.666Z,996.51
2023-02-23T04:11:34.763Z,996.31
2023-02-23T04:11:56.583Z,996.31
2023-02-23T04:12:28.560Z,996.31
2023-02-23T04:13:00.626Z,996.14
2023-02-23T04:13:32.746Z,996.14
2023-02-23T04:14:04.669Z,996.41
2023-02-23T04:14:37.451Z,996.41
2023-02-23T04:15:09.176Z,996.31
2023-02-23T04:15:35.269Z,996.41
2023-02-23T04:15:56.868Z,996.41
2023-02-23T04:16:28.649Z,996.41
2023-02-23T04:17:00.655Z,996.04
2023-02-23T04:17:32.622Z,996.04
2023-02-23T04:18:04.585Z,996.41
2023-02-23T04:18:36.664Z,996.41
2023-02-23T04:19:08.562Z,996.24
2023-02-23T04:19:35.262Z,996.14
2023-02-23T04:19:56.558Z,996.14
2023-02-23T04:20:29.426Z,996.14
2023-02-23T04:21:01.372Z,996.51
2023-02-23T04:21:32.603Z,996.51
2023-02-23T04:22:04.573Z,996.31
2023-02-23T04:22:36.539Z,996.31
2023-02-23T04:23:08.551Z,996.14
2023-02-23T04:23:34.951Z,996.31
2023-02-23T04:23:56.597Z,996.31
2023-02-23T04:24:28.584Z,996.31
2023-02-23T04:25:02.318Z,996.24
2023-02-23T04:25:32.654Z,996.24
2023-02-23T04:26:04.577Z,996.51
2023-02-23T04:26:36.864Z,996.51
2023-02-23T04:27:08.567Z,996.31
2023-02-23T04:27:34.745Z,996.24
2023-02-23T04:27:56.546Z,996.24
2023-02-23T04:28:28.578Z,996.24
2023-02-23T04:29:00.655Z,996.51
2023-02-23T04:29:32.634Z,996.51
2023-02-23T04:30:06.441Z,996.31
2023-02-23T04:30:37.332Z,996.31
2023-02-23T04:31:08.578Z,996.31
2023-02-23T04:31:35.083Z,996.24
2023-02-23T04:31:56.607Z,996.24
2023-02-23T04:32:28.830Z,996.24
2023-02-23T04:33:00.776Z,996.31
2023-02-23T04:33:32.746Z,996.31
2023-02-23T04:34:04.561Z,996.31
2023-02-23T04:34:36.594Z,996.31
2023-02-23T04:35:08.854Z,996.31
2023-02-23T04:35:34.772Z,996.31
2023-02-23T04:35:56.893Z,996.31
2023-02-23T04:36:28.544Z,996.31
2023-02-23T04:37:01.672Z,996.31
2023-02-23T04:37:32.592Z,996.31
2023-02-23T04:38:04.571Z,996.24
2023-02-23T04:38:36.580Z,996.24
2023-02-23T04:39:08.550Z,996.51
2023-02-23T04:39:34.751Z,996.31
2023-02-23T04:39:56.574Z,996.31
2023-02-23T04:40:29.308Z,996.31
2023-02-23T04:41:00.672Z,996.41
2023-02-23T04:41:32.652Z,996.41
2023-02-23T04:42:04.640Z,996.31
2023-02-23T04:42:36.584Z,996.31
2023-02-23T04:43:08.581Z,996.31
2023-02-23T04:43:34.758Z,996.41
2023-02-23T04:43:56.638Z,996.41
2023-02-23T04:44:28.526Z,996.41
2023-02-23T04:45:02.716Z,996.41
2023-02-23T04:45:32.669Z,996.41
2023-02-23T04:46:04.973Z,996.51
2023-02-23T04:46:37.423Z,996.51
2023-02-23T04:47:08.617Z,996.41
2023-02-23T04:47:34.795Z,996.51
2023-02-23T04:47:56.603Z,996.51
2023-02-23T04:48:28.589Z,996.51
2023-02-23T04:49:00.611Z,996.41
2023-02-23T04:49:32.608Z,996.41
2023-02-23T04:50:05.060Z,996.31
2023-02-23T04:50:36.603Z,996.31
2023-02-23T04:51:08.562Z,996.51
2023-02-23T04:51:35.553Z,996.41
2023-02-23T04:51:56.569Z,996.41
2023-02-23T04:52:28.635Z,996.41
2023-02-23T04:53:01.473Z,996.51
2023-02-23T04:53:32.600Z,996.51
2023-02-23T04:54:04.556Z,996.41
2023-02-23T04:54:36.590Z,996.41
2023-02-23T04:55:08.844Z,996.51
2023-02-23T04:55:34.773Z,996.41
2023-02-23T04:55:56.862Z,996.41
2023-02-23T04:56:28.563Z,996.41
2023-02-23T04:57:00.664Z,996.31
2023-02-23T04:57:32.610Z,996.31
2023-02-23T04:58:04.603Z,996.41
2023-02-23T04:58:36.709Z,996.41
2023-02-23T04:59:08.571Z,996.41
2023-02-23T04:59:34.773Z,996.61
2023-02-23T04:59:56.542Z,996.61
2023-02-23T05:00:29.803Z,996.61
2023-02-23T05:01:00.701Z,996.51
2023-02-23T05:01:32.695Z,996.51
2023-02-23T05:02:04.381Z,996.31
2023-02-23T05:02:36.879Z,996.31
2023-02-23T05:03:08.122Z,996.41
2023-02-23T05:03:35.195Z,996.51
2023-02-23T05:03:56.018Z,996.51
2023-02-23T05:04:28.108Z,996.51
2023-02-23T05:05:00.161Z,996.51
2023-02-23T05:05:32.498Z,996.51
2023-02-23T05:06:04.087Z,996.61
2023-02-23T05:06:38.002Z,996.61
2023-02-23T05:07:12.212Z,996.41
2023-02-23T05:07:35.829Z,996.71
2023-02-23T05:07:57.122Z,996.71
2023-02-23T05:08:28.683Z,996.71
2023-02-23T05:09:01.442Z,996.51
2023-02-23T05:09:32.627Z,996.51
2023-02-23T05:10:04.952Z,996.61
2023-02-23T05:10:38.585Z,996.61
2023-02-23T05:11:08.587Z,996.41
2023-02-23T05:11:35.131Z,996.51
2023-02-23T05:11:57.157Z,996.51
2023-02-23T05:12:28.695Z,996.51
2023-02-23T05:13:00.737Z,996.31
2023-02-23T05:13:32.642Z,996.31
2023-02-23T05:14:04.702Z,996.31
2023-02-23T05:14:36.605Z,996.31
2023-02-23T05:15:09.280Z,996.51
2023-02-23T05:15:34.835Z,996.41
2023-02-23T05:15:57.443Z,996.41
2023-02-23T05:16:28.596Z,996.41
2023-02-23T05:17:00.616Z,996.51
2023-02-23T05:17:32.580Z,996.51
2023-02-23T05:18:04.577Z,996.51
2023-02-23T05:18:38.649Z,996.51
2023-02-23T05:19:08.620Z,996.31
2023-02-23T05:19:35.066Z,996.41
2023-02-23T05:19:57.157Z,996.41
2023-02-23T05:20:28.985Z,996.41
2023-02-23T05:21:00.613Z,996.41
2023-02-23T05:21:32.600Z,996.41
2023-02-23T05:22:04.608Z,996.41
2023-02-23T05:22:36.611Z,996.41
2023-02-23T05:23:08.542Z,996.41
2023-02-23T05:23:34.859Z,996.41
2023-02-23T05:23:57.235Z,996.41
2023-02-23T05:24:28.598Z,996.41
2023-02-23T05:25:03.857Z,996.51
2023-02-23T05:25:32.558Z,996.51
2023-02-23T05:26:04.559Z,996.41
2023-02-23T05:26:36.545Z,996.41
2023-02-23T05:27:08.537Z,996.41
2023-02-23T05:27:34.751Z,996.31
2023-02-23T05:27:57.106Z,996.31
2023-02-23T05:28:28.615Z,996.31
2023-02-23T05:29:00.936Z,996.31
2023-02-23T05:29:32.618Z,996.31
2023-02-23T05:30:06.775Z,996.51
2023-02-23T05:30:36.773Z,996.51
2023-02-23T05:31:08.767Z,996.41
2023-02-23T05:31:34.919Z,996.41
2023-02-23T05:31:57.188Z,996.41
2023-02-23T05:32:28.803Z,996.41
2023-02-23T05:33:00.836Z,996.41
2023-02-23T05:33:32.623Z,996.41
2023-02-23T05:34:04.624Z,996.41
2023-02-23T05:34:37.422Z,996.41
2023-02-23T05:35:08.974Z,996.51
2023-02-23T05:35:34.792Z,996.41
2023-02-23T05:35:57.387Z,996.41
2023-02-23T05:36:28.705Z,996.41
2023-02-23T05:37:00.708Z,996.51
2023-02-23T05:37:32.638Z,996.51
2023-02-23T05:38:04.602Z,996.31
2023-02-23T05:38:36.658Z,996.31
2023-02-23T05:39:08.661Z,996.51
2023-02-23T05:39:35.640Z,996.41
2023-02-23T05:39:57.115Z,996.41
2023-02-23T05:40:29.031Z,996.41
2023-02-23T05:41:01.411Z,996.41
2023-02-23T05:41:32.616Z,996.41
2023-02-23T05:42:04.627Z,996.51
2023-02-23T05:42:36.620Z,996.51
2023-02-23T05:43:08.643Z,996.31
2023-02-23T05:43:34.801Z,996.31
2023-02-23T05:43:57.119Z,996.31
2023-02-23T05:44:28.680Z,996.31
2023-02-23T05:45:02.746Z,996.61
2023-02-23T05:45:32.657Z,996.61
2023-02-23T05:46:04.907Z,996.41
2023-02-23T05:46:36.839Z,996.41
2023-02-23T05:47:08.582Z,996.41
2023-02-23T05:47:34.722Z,996.24
2023-02-23T05:47:57.048Z,996.24
2023-02-23T05:48:28.605Z,996.24
2023-02-23T05:49:00.671Z,996.41
2023-02-23T05:49:32.541Z,996.41
2023-02-23T05:50:04.905Z,996.41
2023-02-23T05:50:40.132Z,996.41
2023-02-23T05:51:08.620Z,996.31
2023-02-23T05:51:34.709Z,996.51
2023-02-23T05:51:57.155Z,996.51
2023-02-23T05:52:28.737Z,996.51
2023-02-23T05:53:00.608Z,996.51
2023-02-23T05:53:32.980Z,996.51
2023-02-23T05:54:04.603Z,996.41
2023-02-23T05:54:36.564Z,996.41
2023-02-23T05:55:08.810Z,996.41
2023-02-23T05:55:34.722Z,996.51
2023-02-23T05:55:57.332Z,996.51
2023-02-23T05:56:28.603Z,996.51
2023-02-23T05:57:01.911Z,996.41
2023-02-23T05:57:32.581Z,996.41
2023-02-23T05:58:04.563Z,996.61
2023-02-23T05:58:36.722Z,996.61
2023-02-23T05:59:08.610Z,996.51
2023-02-23T05:59:34.791Z,996.61
2023-02-23T05:59:57.135Z,996.61
2023-02-23T06:00:29.239Z,996.61
2023-02-23T06:01:00.644Z,996.51
2023-02-23T06:01:32.535Z,996.51
2023-02-23T06:02:04.623Z,996.41
2023-02-23T06:02:36.699Z,996.41
2023-02-23T06:03:08.587Z,996.61
2023-02-23T06:03:35.173Z,996.51
2023-02-23T06:03:57.217Z,996.51
2023-02-23T06:04:28.626Z,996.51
2023-02-23T06:05:02.415Z,996.51
2023-02-23T06:05:32.534Z,996.51
2023-02-23T06:06:04.571Z,996.51
2023-02-23T06:06:40.300Z,996.51
2023-02-23T06:07:08.529Z,996.51
2023-02-23T06:07:34.777Z,996.61
2023-02-23T06:07:57.105Z,996.61
2023-02-23T06:08:28.661Z,996.61
2023-02-23T06:09:00.653Z,996.51
2023-02-23T06:09:32.590Z,996.51
2023-02-23T06:10:04.888Z,996.41
2023-02-23T06:10:36.914Z,996.41
2023-02-23T06:11:08.589Z,996.41
2023-02-23T06:11:34.744Z,996.61
2023-02-23T06:11:57.103Z,996.61
2023-02-23T06:12:28.587Z,996.61
2023-02-23T06:13:01.258Z,996.61